Time;durP1;ratioP1;P1;durP2;ratioP2;P2;SDS_P1;SDS_P2;PMS_P1;PMS_P2;Temp;Humidity;BMP_temperature;BMP_pressure;BME280_temperature;BME280_humidity;BME280_pressure;Samples;Min_cycle;Max_cycle;Signal;HPM_P1;HPM_P2
2022/12/01 00:01:12;;;;;;;38.27;14.77;;;;;;;-10.93;57.31;102748.53;6099322;23;20057;-79
2022/12/01 00:03:39;;;;;;;40.50;16.93;;;;;;;-11.02;57.36;102734.78;6098233;23;20022;-80
2022/12/01 00:06:14;;;;;;;38.73;14.33;;;;;;;-10.90;57.72;102751.44;6048934;23;20021;-80
2022/12/01 00:10:24;;;;;;;36.27;12.23;;;;;;;-11.04;57.25;102727.06;6096854;23;20018;-80
2022/12/01 00:11:28;;;;;;;27.73;11.43;;;;;;;-10.92;57.12;102743.66;6071004;23;20057;-80
2022/12/01 00:13:54;;;;;;;30.70;10.87;;;;;;;-11.10;56.69;102703.66;6096214;23;20018;-79
2022/12/01 00:16:20;;;;;;;30.37;11.30;;;;;;;-11.03;57.29;102723.84;6098572;23;20018;-80
2022/12/01 00:18:50;;;;;;;26.73;11.30;;;;;;;-10.93;57.15;102741.91;6098084;23;20022;-80
2022/12/01 00:21:19;;;;;;;33.70;10.73;;;;;;;-10.92;57.25;102733.59;6087470;23;20022;-77
2022/12/01 00:23:47;;;;;;;33.53;11.13;;;;;;;-11.12;56.74;102702.56;6096411;23;20029;-78
2022/12/01 00:26:14;;;;;;;27.83;11.07;;;;;;;-11.02;57.12;102715.56;6024535;23;20014;-80
2022/12/01 00:28:41;;;;;;;30.27;10.33;;;;;;;-11.10;56.94;102713.72;6047517;23;20022;-78
2022/12/01 00:31:08;;;;;;;36.00;11.20;;;;;;;-11.17;56.81;102704.50;6072009;23;20022;-79
2022/12/01 00:33:34;;;;;;;31.37;11.30;;;;;;;-11.12;56.23;102716.03;6071585;23;20028;-79
2022/12/01 00:36:01;;;;;;;30.13;10.63;;;;;;;-11.15;56.75;102713.16;6097235;23;20026;-79
2022/12/01 00:38:28;;;;;;;31.37;11.13;;;;;;;-11.13;56.55;102735.97;6073403;23;20045;-81
2022/12/01 00:40:54;;;;;;;27.67;10.63;;;;;;;-11.42;57.32;102706.44;6075048;23;20018;-83
2022/12/01 00:43:20;;;;;;;24.50;9.60;;;;;;;-11.18;57.09;102747.09;6103790;23;20022;-80
2022/12/01 00:45:46;;;;;;;31.77;12.20;;;;;;;-11.53;56.46;102679.97;6078068;23;20516;-80
2022/12/01 00:48:18;;;;;;;33.13;11.67;;;;;;;-11.13;56.75;102746.03;6075297;23;20049;-80
2022/12/01 00:50:58;;;;;;;27.70;9.82;;;;;;;-12.42;56.58;102539.94;6051477;23;20077;-80
2022/12/01 00:53:37;;;;;;;27.07;9.30;;;;;;;-11.28;56.72;102719.88;6072481;23;20018;-81
2022/12/01 00:56:06;;;;;;;27.67;9.77;;;;;;;-12.44;56.95;102523.78;6102314;23;20019;-78
2022/12/01 00:58:33;;;;;;;30.83;10.40;;;;;;;-11.13;56.65;102746.94;6109366;23;20025;-78
2022/12/01 01:01:04;;;;;;;27.47;10.70;;;;;;;-12.07;56.64;102592.84;6080283;23;20542;-79
2022/12/01 01:03:33;;;;;;;42.37;10.90;;;;;;;-11.20;55.86;102722.63;6102065;23;20025;-82
2022/12/01 01:06:07;;;;;;;32.57;10.50;;;;;;;-11.12;56.49;102732.72;6103262;23;20020;-79
2022/12/01 01:08:45;;;;;;;41.43;12.10;;;;;;;-11.29;56.04;102721.47;6086801;23;20034;-78
2022/12/01 01:11:12;;;;;;;33.37;9.43;;;;;;;-11.58;56.33;102673.44;6085847;23;20025;-79
2022/12/01 01:13:41;;;;;;;36.13;10.97;;;;;;;-11.75;56.44;102660.38;6111245;23;20130;-77
2022/12/01 01:16:13;;;;;;;31.73;10.63;;;;;;;-11.80;55.62;102670.75;6112132;23;20018;-77
2022/12/01 01:18:39;;;;;;;29.10;11.53;;;;;;;-12.03;55.68;102660.34;6101803;23;20021;-81
2022/12/01 01:21:09;;;;;;;25.53;10.40;;;;;;;-12.46;56.04;102570.38;6073209;23;20029;-80
2022/12/01 01:23:37;;;;;;;31.67;10.90;;;;;;;-13.02;56.42;102492.19;6097433;23;20026;-77
2022/12/01 01:26:10;;;;;;;25.70;9.50;;;;;;;-12.32;56.38;102602.28;6051442;23;20045;-80
2022/12/01 01:28:36;;;;;;;26.47;10.50;;;;;;;-12.88;56.30;102493.94;6075654;23;20392;-77
2022/12/01 01:31:06;;;;;;;25.27;10.40;;;;;;;-12.26;55.95;102602.19;6075674;23;20018;-79
2022/12/01 01:33:33;;;;;;;31.93;10.63;;;;;;;-11.72;55.74;102696.88;6105772;23;20018;-78
2022/12/01 01:36:00;;;;;;;26.17;10.20;;;;;;;-11.47;56.07;102731.72;6105830;23;20045;-82
2022/12/01 01:38:26;;;;;;;23.17;10.13;;;;;;;-11.71;56.22;102701.19;6098276;23;20054;-79
2022/12/01 01:40:53;;;;;;;27.90;11.23;;;;;;;-11.68;56.05;102691.50;6074393;23;20125;-78
2022/12/01 01:43:40;;;;;;;34.53;11.73;;;;;;;-11.53;56.02;102721.81;6099965;23;20028;-77
2022/12/01 01:46:06;;;;;;;36.80;11.87;;;;;;;-11.67;55.57;102705.88;6073153;23;20532;-82
2022/12/01 01:48:35;;;;;;;32.47;10.10;;;;;;;-11.70;55.50;102719.66;6073880;23;20113;-80
2022/12/01 01:51:02;;;;;;;28.37;11.00;;;;;;;-11.74;55.53;102730.03;6073246;23;20018;-78
2022/12/01 01:53:29;;;;;;;26.77;9.97;;;;;;;-11.79;55.56;102726.94;6097602;23;20029;-77
2022/12/01 01:55:56;;;;;;;23.13;9.40;;;;;;;-12.17;55.60;102676.16;6099181;23;20022;-81
2022/12/01 01:58:22;;;;;;;32.27;10.47;;;;;;;-11.97;55.75;102698.75;6101069;23;20018;-82
2022/12/01 02:00:48;;;;;;;49.10;18.17;;;;;;;-11.77;55.54;102735.56;6073110;23;20106;-77
2022/12/01 02:03:17;;;;;;;31.33;11.13;;;;;;;-11.72;55.77;102731.13;6098138;23;20025;-80
2022/12/01 02:05:44;;;;;;;30.67;9.10;;;;;;;-11.95;55.53;102701.47;6072928;23;20048;-80
2022/12/01 02:08:13;;;;;;;23.87;9.63;;;;;;;-11.80;55.81;102726.00;6098097;23;20037;-81
2022/12/01 02:11:12;;;;;;;28.70;9.53;;;;;;;-11.83;55.82;102743.25;6098690;23;20026;-79
2022/12/01 02:13:56;;;;;;;28.67;10.43;;;;;;;-11.91;55.32;102732.91;6099277;23;20018;-82
2022/12/01 02:16:28;;;;;;;34.33;9.23;;;;;;;-11.85;55.77;102739.63;6074734;23;20388;-79
2022/12/01 02:19:16;;;;;;;28.47;9.93;;;;;;;-11.88;55.52;102724.16;6100251;23;20022;-76
2022/12/01 02:22:17;;;;;;;28.50;10.03;;;;;;;-11.87;55.70;102738.53;6099224;23;20145;-80
2022/12/01 02:25:25;;;;;;;31.07;10.30;;;;;;;-12.04;55.61;102693.69;6099246;23;20046;-78
2022/12/01 02:28:34;;;;;;;29.87;11.77;;;;;;;-11.77;55.39;102725.53;6074531;23;20407;-79
2022/12/01 02:31:12;;;;;;;23.43;9.20;;;;;;;-11.77;55.42;102712.97;6066497;23;20464;-79
2022/12/01 02:33:51;;;;;;;29.60;10.13;;;;;;;-11.65;55.48;102727.06;6099926;23;20018;-81
2022/12/01 02:36:32;;;;;;;23.13;9.03;;;;;;;-11.56;55.39;102734.88;6085057;23;20087;-79
2022/12/01 02:39:09;;;;;;;25.87;8.97;;;;;;;-11.53;55.33;102724.31;6089166;23;20100;-82
2022/12/01 02:41:45;;;;;;;32.67;9.43;;;;;;;-11.51;55.70;102731.34;6074825;23;20018;-79
2022/12/01 02:44:21;;;;;;;33.40;10.37;;;;;;;-11.50;55.05;102737.28;6059346;23;20057;-77
2022/12/01 02:46:58;;;;;;;24.83;9.43;;;;;;;-11.69;55.35;102686.28;6064639;23;20030;-76
2022/12/01 02:49:35;;;;;;;23.80;9.40;;;;;;;-11.58;54.92;102717.81;6088794;23;20024;-78
2022/12/01 02:52:05;;;;;;;27.97;10.20;;;;;;;-11.51;54.76;102731.34;6079969;23;20018;-80
2022/12/01 02:54:32;;;;;;;33.57;10.57;;;;;;;-11.50;55.40;102728.13;6097139;23;20046;-80
2022/12/01 02:56:58;;;;;;;27.57;10.13;;;;;;;-11.55;55.00;102718.19;6098462;23;20099;-78
2022/12/01 02:59:24;;;;;;;24.87;10.00;;;;;;;-11.32;55.54;102735.28;6048960;23;20018;-79
2022/12/01 03:02:01;;;;;;;26.33;9.83;;;;;;;-11.42;55.33;102721.53;6098065;23;20028;-84
2022/12/01 03:04:42;;;;;;;27.90;10.73;;;;;;;-11.32;54.48;102735.28;6072435;23;20025;-82
2022/12/01 03:07:15;;;;;;;32.75;10.95;;;;;;;-11.38;54.98;102710.28;6071706;23;20022;-81
2022/12/01 03:09:59;;;;;;;24.83;9.70;;;;;;;-11.28;55.36;102722.41;6071872;23;20044;-79
2022/12/01 03:12:49;;;;;;;27.80;10.13;;;;;;;-11.23;54.86;102727.28;6047830;23;20054;-80
2022/12/01 03:15:44;;;;;;;24.30;10.00;;;;;;;-11.24;54.08;102717.00;6072043;23;20018;-78
2022/12/01 03:18:19;;;;;;;30.83;9.40;;;;;;;-11.73;53.80;102689.13;6098039;23;20421;-80
2022/12/01 03:21:25;;;;;;;31.40;10.00;;;;;;;-11.54;54.86;102725.91;6096032;23;20022;-80
2022/12/01 03:23:59;;;;;;;28.20;10.80;;;;;;;-11.58;55.08;102703.59;6061333;23;20022;-78
2022/12/01 03:26:29;;;;;;;33.93;12.43;;;;;;;-11.47;55.16;102696.53;6095680;23;20483;-82
2022/12/01 03:29:02;;;;;;;24.13;8.33;;;;;;;-11.53;53.76;102722.69;6072457;23;20105;-79
2022/12/01 03:31:34;;;;;;;38.43;11.63;;;;;;;-11.77;54.44;102694.47;6099514;23;20098;-78
2022/12/01 03:34:28;;;;;;;29.53;11.20;;;;;;;-11.94;54.92;102689.81;6050478;23;20018;-83
2022/12/01 03:37:00;;;;;;;28.27;11.37;;;;;;;-11.77;55.22;102686.91;6097799;23;20371;-79
2022/12/01 03:39:33;;;;;;;27.88;11.93;;;;;;;-11.51;55.38;102721.28;6074554;23;20022;-83
2022/12/01 03:42:06;;;;;;;23.30;9.90;;;;;;;-11.42;54.90;102723.16;6096243;23;20030;-80
2022/12/01 03:44:46;;;;;;;36.60;12.80;;;;;;;-11.34;55.26;102720.00;6097956;23;20528;-79
2022/12/01 03:47:17;;;;;;;32.63;12.20;;;;;;;-11.32;55.53;102716.06;6097711;23;20367;-80
2022/12/01 03:49:46;;;;;;;29.40;11.40;;;;;;;-11.48;55.17;102695.66;6048485;23;20025;-79
2022/12/01 03:52:44;;;;;;;34.60;10.23;;;;;;;-11.48;54.34;102702.28;6071619;23;20025;-81
2022/12/01 03:55:28;;;;;;;28.47;10.20;;;;;;;-11.53;55.56;102695.03;6098962;23;20023;-81
2022/12/01 03:58:19;;;;;;;23.03;8.90;;;;;;;-11.34;54.44;102725.00;6098664;23;20025;-80
2022/12/01 04:00:48;;;;;;;30.33;10.57;;;;;;;-11.41;54.64;102714.91;6083733;23;20014;-80
2022/12/01 04:03:21;;;;;;;31.17;11.03;;;;;;;-11.39;54.40;102716.91;6048533;23;20034;-79
2022/12/01 04:05:47;;;;;;;26.20;10.73;;;;;;;-11.40;54.74;102715.09;6097576;23;20019;-77
2022/12/01 04:08:13;;;;;;;24.83;11.10;;;;;;;-11.47;54.64;102691.50;6098720;23;20106;-80
2022/12/01 04:10:39;;;;;;;27.87;9.80;;;;;;;-11.33;54.62;102718.38;6049628;23;20030;-82
2022/12/01 04:13:10;;;;;;;23.70;9.53;;;;;;;-11.28;55.18;102715.72;6097752;23;20018;-81
2022/12/01 04:15:36;;;;;;;26.90;10.60;;;;;;;-11.39;54.80;102691.75;6072969;23;20076;-80
2022/12/01 04:18:03;;;;;;;28.83;10.70;;;;;;;-11.27;55.06;102722.56;6098389;23;20242;-82
2022/12/01 04:20:29;;;;;;;29.10;11.57;;;;;;;-11.30;54.56;102706.22;6098894;23;20472;-80
2022/12/01 04:22:55;;;;;;;23.73;10.30;;;;;;;-11.30;54.60;102717.16;6077045;23;20022;-79
2022/12/01 04:25:21;;;;;;;23.67;9.43;;;;;;;-11.25;54.62;102723.66;6050455;23;20018;-85
2022/12/01 04:27:47;;;;;;;26.30;9.37;;;;;;;-11.28;54.30;102720.75;6073293;23;20101;-80
2022/12/01 04:30:14;;;;;;;25.63;10.23;;;;;;;-11.56;54.75;102677.06;6098923;23;20026;-79
2022/12/01 04:32:41;;;;;;;24.17;9.93;;;;;;;-11.27;54.61;102722.56;6073405;23;20048;-83
2022/12/01 04:35:09;;;;;;;34.37;10.67;;;;;;;-11.36;54.77;102706.31;6076703;23;20038;-78
2022/12/01 04:37:36;;;;;;;25.80;9.87;;;;;;;-11.25;55.10;102732.84;6077669;23;20018;-76
2022/12/01 04:40:02;;;;;;;31.80;10.23;;;;;;;-11.35;54.79;102730.75;6078296;23;20480;-81
2022/12/01 04:42:29;;;;;;;30.80;10.53;;;;;;;-11.56;54.43;102681.19;6054453;23;20038;-76
2022/12/01 04:44:55;;;;;;;30.23;11.43;;;;;;;-11.24;54.27;102735.53;6103631;23;20015;-78
2022/12/01 04:47:21;;;;;;;30.70;10.07;;;;;;;-11.26;54.78;102724.38;6107041;23;20049;-77
2022/12/01 04:49:47;;;;;;;26.73;9.47;;;;;;;-11.24;54.72;102722.03;6103529;23;20030;-79
2022/12/01 04:52:13;;;;;;;26.00;9.63;;;;;;;-11.21;54.66;102722.44;6112895;23;20014;-77
2022/12/01 04:54:39;;;;;;;25.93;9.77;;;;;;;-11.20;54.28;102721.72;6081367;23;20018;-79
2022/12/01 04:57:06;;;;;;;29.70;9.30;;;;;;;-11.20;54.51;102720.13;6074162;23;20364;-79
2022/12/01 04:59:32;;;;;;;23.67;10.17;;;;;;;-11.45;53.91;102695.13;6052813;23;20018;-81
2022/12/01 05:01:58;;;;;;;28.23;9.93;;;;;;;-11.20;54.68;102725.16;6098573;23;20085;-81
2022/12/01 05:04:24;;;;;;;26.50;9.53;;;;;;;-11.37;54.17;102700.41;6050276;23;20356;-79
2022/12/01 05:06:54;;;;;;;25.53;8.97;;;;;;;-11.17;54.70;102719.59;6098348;23;20014;-80
2022/12/01 05:09:20;;;;;;;25.47;8.97;;;;;;;-11.15;53.90;102723.22;6099643;23;20022;-79
2022/12/01 05:11:46;;;;;;;30.13;11.77;;;;;;;-11.30;53.48;102692.00;6099394;23;20018;-79
2022/12/01 05:14:12;;;;;;;27.50;10.40;;;;;;;-11.84;54.12;102604.84;6112377;23;20025;-80
2022/12/01 05:16:38;;;;;;;30.23;9.87;;;;;;;-11.10;54.19;102728.81;6049463;23;20019;-78
2022/12/01 05:21:51;;;;;;;26.00;9.10;;;;;;;-11.05;53.98;102728.69;6052855;23;20066;-83
2022/12/01 05:24:18;;;;;;;26.13;9.93;;;;;;;-11.00;53.86;102731.78;6073439;23;20019;-81
2022/12/01 05:26:46;;;;;;;32.13;9.50;;;;;;;-10.95;54.13;102739.88;6107170;23;20022;-76
2022/12/01 05:29:13;;;;;;;23.87;9.40;;;;;;;-11.24;53.75;102685.25;6091687;23;20018;-77
2022/12/01 05:31:39;;;;;;;28.33;9.90;;;;;;;-10.85;53.67;102752.00;6090767;23;20027;-77
2022/12/01 05:34:08;;;;;;;25.73;9.30;;;;;;;-11.33;53.69;102671.50;6089628;23;20030;-77
2022/12/01 05:36:35;;;;;;;25.67;9.57;;;;;;;-10.85;53.78;102744.44;6058568;23;20018;-83
2022/12/01 05:39:01;;;;;;;26.00;9.33;;;;;;;-11.04;53.79;102709.44;6071128;23;20018;-83
2022/12/01 05:41:27;;;;;;;31.50;10.27;;;;;;;-10.78;53.22;102716.81;6098905;23;20018;-78
2022/12/01 05:43:53;;;;;;;25.60;9.20;;;;;;;-10.46;53.17;102742.53;6074650;23;20026;-83
2022/12/01 05:46:19;;;;;;;25.87;9.20;;;;;;;-10.30;53.27;102726.03;6101643;23;20131;-75
2022/12/01 05:48:46;;;;;;;25.37;9.33;;;;;;;-10.46;53.64;102679.56;6027835;23;20018;-78
2022/12/01 05:51:15;;;;;;;25.57;10.13;;;;;;;-10.40;53.19;102681.94;6074889;23;20041;-82
2022/12/01 05:53:42;;;;;;;23.63;8.73;;;;;;;-10.08;53.20;102747.88;6075837;23;20038;-82
2022/12/01 05:56:08;;;;;;;23.33;8.80;;;;;;;-10.34;53.01;102700.28;6076732;23;20069;-81
2022/12/01 05:58:35;;;;;;;26.63;10.60;;;;;;;-10.05;52.75;102746.66;6075377;23;20026;-81
2022/12/01 06:01:01;;;;;;;30.97;11.73;;;;;;;-9.98;53.48;102748.28;6100277;23;20026;-79
2022/12/01 06:03:27;;;;;;;27.03;10.77;;;;;;;-9.98;52.42;102735.69;6098745;23;20028;-83
2022/12/01 06:05:53;;;;;;;23.87;9.33;;;;;;;-10.05;52.22;102744.13;6072957;23;20073;-81
2022/12/01 06:08:19;;;;;;;19.43;8.10;;;;;;;-10.29;51.84;102748.00;6099129;23;20209;-81
2022/12/01 06:10:46;;;;;;;25.60;9.60;;;;;;;-10.29;52.81;102747.06;6101388;23;20026;-78
2022/12/01 06:13:34;;;;;;;25.53;9.63;;;;;;;-11.04;52.79;102608.81;6099944;23;20029;-79
2022/12/01 06:16:04;;;;;;;23.47;8.90;;;;;;;-10.27;52.64;102747.28;6052756;23;20032;-79
2022/12/01 06:23:37;;;;;;;21.80;7.95;;;;;;;-9.62;52.89;102767.66;6018506;23;20023;-78
2022/12/01 06:29:57;;;;;;;23.70;9.05;;;;;;;-9.31;52.39;102738.50;6081985;23;20033;-79
2022/12/01 06:32:50;;;;;;;21.30;8.50;;;;;;;-9.16;52.50;102717.63;6105600;23;20014;-81
2022/12/01 06:35:28;;;;;;;20.77;8.23;;;;;;;-10.08;52.55;102544.72;6060127;23;20056;-82
2022/12/01 06:38:20;;;;;;;21.43;8.53;;;;;;;-10.27;51.75;102560.91;6044316;23;20041;-80
2022/12/01 06:41:04;;;;;;;23.57;9.20;;;;;;;-9.13;52.21;102737.25;6107115;23;20018;-81
2022/12/01 06:43:31;;;;;;;23.43;9.00;;;;;;;-8.97;52.04;102758.53;6102147;23;20089;-80
2022/12/01 06:45:58;;;;;;;27.23;8.83;;;;;;;-8.78;52.38;102754.00;6030480;23;20120;-83
2022/12/01 06:48:30;;;;;;;20.27;8.70;;;;;;;-9.31;52.30;102647.69;6079327;23;20018;-81
2022/12/01 06:50:58;;;;;;;32.57;11.03;;;;;;;-8.98;52.12;102673.41;6083460;23;20077;-80
2022/12/01 06:53:26;;;;;;;26.70;9.93;;;;;;;-8.41;51.90;102731.16;6082898;23;20032;-79
2022/12/01 06:55:52;;;;;;;23.73;9.43;;;;;;;-8.18;51.92;102729.63;6081892;23;20059;-80
2022/12/01 06:58:18;;;;;;;23.30;9.90;;;;;;;-8.44;51.96;102639.84;6058590;23;20025;-80
2022/12/01 07:00:44;;;;;;;21.58;9.68;;;;;;;-7.74;51.65;102692.38;6107179;23;20028;-79
2022/12/01 07:03:11;;;;;;;20.63;8.77;;;;;;;-7.12;51.59;102738.72;6110824;23;20026;-79
2022/12/01 07:05:37;;;;;;;27.42;9.00;;;;;;;-6.75;51.45;102745.28;6115208;23;20019;-78
2022/12/01 07:08:07;;;;;;;25.40;9.38;;;;;;;-6.40;51.51;102745.63;6094469;23;20021;-81
2022/12/01 07:49:05;;;;;;;25.75;12.48;;;;;;;-1.90;38.99;102670.97;5064651;27;1458783;-81
2022/12/01 07:51:32;;;;;;;21.63;10.77;;;;;;;-1.95;40.23;102706.31;5096988;28;20087;-78
2022/12/01 07:54:38;;;;;;;24.60;11.55;;;;;;;-1.84;40.30;102730.22;5025193;28;20438;-79
2022/12/01 07:57:04;;;;;;;22.90;10.48;;;;;;;-2.15;40.16;102674.81;5087771;28;20040;-82
2022/12/01 07:59:29;;;;;;;23.23;10.63;;;;;;;-1.84;40.96;102708.13;5086045;28;20058;-80
2022/12/01 08:01:55;;;;;;;24.08;10.77;;;;;;;-1.77;41.14;102689.16;5091085;28;20066;-79
2022/12/01 08:04:22;;;;;;;23.17;11.85;;;;;;;-1.54;41.18;102663.06;5077520;28;20082;-81
2022/12/01 08:06:48;;;;;;;29.65;11.18;;;;;;;-1.13;39.92;102709.91;5054513;28;20047;-77
2022/12/01 08:09:30;;;;;;;25.60;12.15;;;;;;;-1.03;40.82;102717.63;5022652;28;20044;-79
2022/12/01 08:11:56;;;;;;;22.58;10.35;;;;;;;-0.67;40.53;102711.25;5070912;28;20036;-80
2022/12/01 08:14:23;;;;;;;24.13;10.65;;;;;;;-0.30;40.74;102687.81;5039168;28;20740;-78
2022/12/01 08:16:49;;;;;;;23.65;11.05;;;;;;;0.01;39.93;102651.84;5003356;28;20041;-79
2022/12/01 08:19:15;;;;;;;23.52;10.65;;;;;;;0.79;40.08;102684.41;5023571;28;20072;-81
2022/12/01 08:21:42;;;;;;;21.15;10.45;;;;;;;1.65;39.86;102696.81;5021425;28;20186;-78
2022/12/01 08:24:09;;;;;;;24.05;11.10;;;;;;;2.07;39.07;102669.00;5056299;28;20043;-78
2022/12/01 08:26:35;;;;;;;33.70;14.02;;;;;;;3.06;38.60;102695.53;5051696;28;20075;-77
2022/12/01 08:29:08;;;;;;;35.65;16.83;;;;;;;3.66;37.27;102675.47;5071388;28;20056;-78
2022/12/01 08:31:36;;;;;;;40.05;19.35;;;;;;;4.11;37.08;102645.72;5074704;28;20047;-79
2022/12/01 08:34:07;;;;;;;45.28;22.08;;;;;;;4.85;36.75;102675.19;5063969;28;20090;-83
2022/12/01 08:36:33;;;;;;;46.72;23.48;;;;;;;4.84;35.01;102652.78;5038823;28;20118;-79
2022/12/01 08:39:00;;;;;;;48.92;24.27;;;;;;;4.64;35.02;102659.28;5020738;28;20052;-76
2022/12/01 08:41:27;;;;;;;50.67;24.65;;;;;;;4.54;35.02;102663.00;5054185;28;20394;-80
2022/12/01 08:43:53;;;;;;;49.33;25.42;;;;;;;4.64;35.14;102651.56;5037599;28;20055;-81
2022/12/01 08:46:19;;;;;;;55.53;28.15;;;;;;;4.93;35.04;102685.97;5069482;28;20040;-78
2022/12/01 08:48:46;;;;;;;49.63;27.05;;;;;;;5.39;34.78;102675.81;5047587;28;20064;-83
2022/12/01 08:51:14;;;;;;;46.42;24.08;;;;;;;5.92;33.80;102671.03;5043102;28;20044;-80
2022/12/01 08:53:44;;;;;;;49.42;26.00;;;;;;;6.18;33.25;102656.09;5036633;28;20036;-79
2022/12/01 08:56:14;;;;;;;54.90;26.85;;;;;;;6.89;33.04;102667.66;5047973;28;20064;-81
2022/12/01 08:58:41;;;;;;;41.17;23.63;;;;;;;7.73;32.80;102658.84;5047471;28;20068;-77
2022/12/01 09:01:09;;;;;;;41.88;20.98;;;;;;;8.31;31.78;102658.94;5030787;28;20098;-82
2022/12/01 09:03:37;;;;;;;43.28;24.55;;;;;;;7.95;30.88;102654.69;5070523;28;20105;-84
2022/12/01 09:06:14;;;;;;;47.35;25.67;;;;;;;7.55;30.67;102651.06;5047821;28;20049;-82
2022/12/01 09:08:41;;;;;;;43.80;24.15;;;;;;;7.11;31.19;102635.09;5041261;28;20040;-81
2022/12/01 09:11:11;;;;;;;45.60;25.23;;;;;;;6.85;30.62;102631.16;5027779;28;20032;-83
2022/12/01 09:13:38;;;;;;;48.20;26.50;;;;;;;7.05;30.93;102639.94;5002803;28;20045;-79
2022/12/01 09:16:07;;;;;;;48.60;27.48;;;;;;;7.58;30.66;102627.00;5029885;28;20044;-81
2022/12/01 09:18:34;;;;;;;58.17;27.73;;;;;;;7.73;30.15;102600.91;5041130;28;20075;-79
2022/12/01 09:21:08;;;;;;;49.03;27.05;;;;;;;8.23;29.95;102643.91;5010147;28;20033;-82
2022/12/01 09:23:34;;;;;;;45.83;25.90;;;;;;;7.95;29.51;102624.44;5021677;28;20049;-78
2022/12/01 09:26:00;;;;;;;50.60;28.92;;;;;;;7.31;28.59;102622.25;5002994;28;20097;-82
2022/12/01 09:28:31;;;;;;;52.75;30.25;;;;;;;6.45;29.85;102633.44;4989647;28;20068;-79
2022/12/01 09:31:06;;;;;;;50.95;27.60;;;;;;;6.09;29.25;102630.63;5019537;28;20421;-80
2022/12/01 09:33:32;;;;;;;52.28;29.10;;;;;;;5.77;29.87;102649.50;5037041;28;20053;-80
2022/12/01 09:36:00;;;;;;;35.10;18.60;;;;;;;5.26;30.30;102606.16;5036141;28;20033;-80
2022/12/01 09:38:28;;;;;;;30.40;16.08;;;;;;;4.67;30.11;102595.00;5019698;28;20044;-82
2022/12/01 09:40:56;;;;;;;25.02;13.98;;;;;;;4.30;30.13;102629.75;5015949;28;20419;-81
2022/12/01 09:43:29;;;;;;;38.28;20.00;;;;;;;3.87;30.65;102645.06;5035051;28;20100;-83
2022/12/01 09:46:04;;;;;;;26.02;14.18;;;;;;;3.28;31.20;102651.56;5008020;28;20049;-81
2022/12/01 09:48:52;;;;;;;30.95;16.10;;;;;;;2.82;31.09;102616.81;5000156;28;20060;-81
2022/12/01 09:51:27;;;;;;;34.42;16.95;;;;;;;2.90;31.64;102649.84;5017697;28;20052;-81
2022/12/01 09:53:58;;;;;;;36.80;19.23;;;;;;;2.36;31.63;102660.78;4986625;28;20064;-79
2022/12/01 09:56:27;;;;;;;37.67;20.95;;;;;;;2.08;31.93;102645.09;5049705;28;20029;-79
2022/12/01 09:58:57;;;;;;;34.10;16.85;;;;;;;1.81;32.09;102655.16;5023669;28;20151;-79
2022/12/01 10:01:36;;;;;;;29.80;14.40;;;;;;;1.24;32.72;102633.00;5024434;28;20049;-79
2022/12/01 10:04:29;;;;;;;31.98;15.18;;;;;;;0.81;32.10;102666.59;5034058;28;20399;-80
2022/12/01 10:07:00;;;;;;;34.20;15.63;;;;;;;-0.52;33.65;102621.16;5019169;28;20045;-80
2022/12/01 10:09:38;;;;;;;33.17;15.48;;;;;;;-0.76;34.54;102629.53;5035700;28;20113;-82
2022/12/01 10:12:16;;;;;;;28.35;14.27;;;;;;;-0.64;34.29;102677.34;5035504;28;20068;-80
2022/12/01 10:14:48;;;;;;;28.08;14.07;;;;;;;-0.69;35.18;102676.09;5022408;28;20510;-80
2022/12/01 10:17:42;;;;;;;32.60;14.35;;;;;;;-1.52;34.57;102526.16;5018133;28;20100;-81
2022/12/01 10:20:27;;;;;;;40.30;14.63;;;;;;;-1.15;34.95;102611.75;4992138;28;20520;-78
2022/12/01 10:23:14;;;;;;;34.50;13.50;;;;;;;-0.81;35.07;102668.28;5032684;28;20123;-78
2022/12/01 10:25:45;;;;;;;30.33;15.15;;;;;;;-0.93;35.47;102678.38;5017112;28;20517;-80
2022/12/01 10:28:44;;;;;;;31.90;14.40;;;;;;;-1.15;35.49;102670.53;4999794;28;20506;-79
2022/12/01 10:31:20;;;;;;;31.50;14.43;;;;;;;-1.26;35.73;102670.53;5017020;28;20148;-79
2022/12/01 10:34:07;;;;;;;31.65;13.93;;;;;;;-1.61;36.74;102618.97;5016460;28;20077;-79
2022/12/01 10:36:33;;;;;;;35.80;16.35;;;;;;;-1.41;36.37;102669.22;5015758;28;20051;-78
2022/12/01 10:39:02;;;;;;;36.28;15.93;;;;;;;-1.90;37.04;102610.59;4983910;28;20068;-78
2022/12/01 10:41:31;;;;;;;62.33;25.13;;;;;;;-1.99;36.67;102665.94;4999974;28;20087;-77
2022/12/01 10:43:59;;;;;;;60.50;26.88;;;;;;;-2.17;37.35;102668.66;5033771;28;20088;-80
2022/12/01 10:46:44;;;;;;;61.13;25.73;;;;;;;-2.29;37.19;102671.03;5033845;28;20045;-79
2022/12/01 10:49:12;;;;;;;54.33;24.95;;;;;;;-2.93;37.07;102682.28;5019880;28;20060;-79
2022/12/01 10:51:57;;;;;;;59.22;24.30;;;;;;;-3.80;37.82;102624.97;5004185;28;20045;-79
2022/12/01 10:54:33;;;;;;;54.67;25.67;;;;;;;-4.79;38.77;102503.72;5044465;28;20163;-80
2022/12/01 10:57:00;;;;;;;59.17;23.13;;;;;;;-4.27;39.50;102661.25;5036611;28;20037;-84
2022/12/01 10:59:29;;;;;;;58.10;26.67;;;;;;;-4.34;40.00;102681.78;5003662;28;20114;-81
2022/12/01 11:01:58;;;;;;;52.05;22.17;;;;;;;-4.25;40.47;102686.84;5005218;28;20037;-77
2022/12/01 11:04:53;;;;;;;46.42;20.35;;;;;;;-4.60;39.94;102625.81;5026873;28;20041;-81
2022/12/01 11:07:27;;;;;;;47.45;21.25;;;;;;;-4.63;40.92;102605.22;4997001;28;20044;-84
2022/12/01 11:10:02;;;;;;;51.10;19.83;;;;;;;-4.03;40.70;102677.09;5023036;28;20045;-78
2022/12/01 11:12:29;;;;;;;49.00;20.02;;;;;;;-4.02;40.46;102658.53;5046390;28;20072;-77
2022/12/01 11:14:57;;;;;;;50.63;20.40;;;;;;;-3.89;41.09;102667.38;5011725;28;20041;-80
2022/12/01 11:17:40;;;;;;;54.28;21.95;;;;;;;-4.28;41.06;102615.34;4996628;28;20430;-78
2022/12/01 11:20:33;;;;;;;61.38;24.08;;;;;;;-4.11;40.84;102675.47;5039900;28;20047;-80
2022/12/01 11:23:28;;;;;;;56.58;20.48;;;;;;;-4.21;41.18;102675.31;5033171;28;20033;-80
2022/12/01 11:26:11;;;;;;;46.47;19.33;;;;;;;-4.31;40.96;102676.06;5012284;28;20124;-78
2022/12/01 11:28:56;;;;;;;47.53;20.58;;;;;;;-4.70;40.43;102673.22;5032999;28;20024;-75
2022/12/01 11:31:43;;;;;;;47.05;20.60;;;;;;;-4.94;41.77;102675.84;5036448;28;20048;-78
2022/12/01 11:34:23;;;;;;;52.10;20.05;;;;;;;-5.20;42.01;102662.34;5001317;28;20127;-78
2022/12/01 11:37:00;;;;;;;60.25;22.50;;;;;;;-5.42;42.07;102617.78;5050962;28;20155;-79
2022/12/01 11:39:39;;;;;;;51.17;20.90;;;;;;;-5.09;42.16;102682.84;5017189;28;20075;-80
2022/12/01 11:42:12;;;;;;;50.22;20.10;;;;;;;-5.64;42.71;102590.22;5034043;28;20084;-81
2022/12/01 11:44:46;;;;;;;38.88;16.85;;;;;;;-5.34;42.95;102657.50;5032925;28;20076;-78
2022/12/01 11:47:14;;;;;;;39.60;16.55;;;;;;;-5.87;42.64;102582.78;5011785;28;20069;-79
2022/12/01 11:49:43;;;;;;;40.15;16.98;;;;;;;-5.82;43.15;102651.00;5014779;28;20111;-79
2022/12/01 11:52:45;;;;;;;41.88;15.98;;;;;;;-5.81;43.44;102680.69;5023113;28;20112;-79
2022/12/01 11:55:11;;;;;;;42.33;16.30;;;;;;;-6.20;43.59;102688.53;5016458;28;20045;-78
2022/12/01 11:57:42;;;;;;;41.03;15.80;;;;;;;-6.16;44.51;102685.59;5032815;28;20150;-78
2022/12/01 12:00:16;;;;;;;39.15;16.02;;;;;;;-6.51;44.05;102672.63;5015953;28;20069;-78
2022/12/01 12:02:51;;;;;;;39.65;15.65;;;;;;;-6.58;45.02;102686.25;5017180;28;20056;-81
2022/12/01 12:05:55;;;;;;;38.25;15.27;;;;;;;-6.71;44.63;102681.53;5016979;28;20041;-78
2022/12/01 12:08:44;;;;;;;43.53;15.82;;;;;;;-6.61;45.82;102679.97;5035010;28;20045;-80
2022/12/01 12:11:38;;;;;;;39.00;15.93;;;;;;;-6.48;46.07;102683.06;5048987;28;20127;-78
2022/12/01 12:14:15;;;;;;;39.17;17.20;;;;;;;-6.46;45.85;102684.13;5026321;28;20055;-78
2022/12/01 12:17:18;;;;;;;52.00;17.90;;;;;;;-7.09;45.89;102571.09;5033351;28;20063;-78
2022/12/01 12:19:44;;;;;;;48.42;18.52;;;;;;;-6.41;46.05;102685.53;5020920;28;20071;-78
2022/12/01 12:22:32;;;;;;;48.75;20.08;;;;;;;-6.41;46.46;102671.97;5066406;28;20065;-78
2022/12/01 12:25:37;;;;;;;52.45;20.67;;;;;;;-6.72;46.17;102687.31;5042719;28;20026;-79